sensor_id;sensor_type;location;lat;lon;timestamp;P1;durP1;ratioP1;P2;durP2;ratioP2
846;SDS011;410;48.954;9.474;2022-11-13T00:01:32;9.45;;;8.20;;
846;SDS011;410;48.954;9.474;2022-11-13T00:03:54;9.75;;;7.93;;
846;SDS011;410;48.954;9.474;2022-11-13T00:06:18;9.85;;;8.15;;
846;SDS011;410;48.954;9.474;2022-11-13T00:08:41;10.20;;;8.35;;
846;SDS011;410;48.954;9.474;2022-11-13T00:11:04;10.23;;;8.38;;
846;SDS011;410;48.954;9.474;2022-11-13T00:13:28;9.95;;;7.85;;
846;SDS011;410;48.954;9.474;2022-11-13T00:15:55;10.48;;;8.60;;
846;SDS011;410;48.954;9.474;2022-11-13T00:18:17;10.43;;;8.60;;
846;SDS011;410;48.954;9.474;2022-11-13T00:20:39;9.90;;;8.38;;
846;SDS011;410;48.954;9.474;2022-11-13T00:23:00;9.75;;;8.20;;
846;SDS011;410;48.954;9.474;2022-11-13T00:25:23;14.07;;;8.60;;
846;SDS011;410;48.954;9.474;2022-11-13T00:27:45;9.30;;;8.30;;
846;SDS011;410;48.954;9.474;2022-11-13T00:30:07;11.10;;;8.82;;
846;SDS011;410;48.954;9.474;2022-11-13T00:32:36;12.43;;;9.52;;
846;SDS011;410;48.954;9.474;2022-11-13T00:34:59;10.95;;;8.32;;
846;SDS011;410;48.954;9.474;2022-11-13T00:37:20;10.73;;;8.48;;
846;SDS011;410;48.954;9.474;2022-11-13T00:39:42;10.77;;;8.15;;
846;SDS011;410;48.954;9.474;2022-11-13T00:42:05;9.43;;;7.75;;
846;SDS011;410;48.954;9.474;2022-11-13T00:44:27;10.68;;;8.10;;
846;SDS011;410;48.954;9.474;2022-11-13T00:46:48;9.48;;;8.23;;
846;SDS011;410;48.954;9.474;2022-11-13T00:49:10;11.57;;;8.02;;
846;SDS011;410;48.954;9.474;2022-11-13T00:51:31;9.55;;;7.50;;
846;SDS011;410;48.954;9.474;2022-11-13T00:53:53;9.55;;;8.45;;
846;SDS011;410;48.954;9.474;2022-11-13T00:56:15;12.40;;;10.55;;
846;SDS011;410;48.954;9.474;2022-11-13T00:58:38;13.32;;;10.18;;
846;SDS011;410;48.954;9.474;2022-11-13T01:01:03;12.85;;;10.32;;
846;SDS011;410;48.954;9.474;2022-11-13T01:03:25;13.45;;;8.75;;
846;SDS011;410;48.954;9.474;2022-11-13T01:05:47;9.70;;;8.70;;
846;SDS011;410;48.954;9.474;2022-11-13T01:08:10;10.25;;;7.93;;
846;SDS011;410;48.954;9.474;2022-11-13T01:10:38;9.07;;;7.53;;
846;SDS011;410;48.954;9.474;2022-11-13T01:13:01;10.65;;;8.70;;
846;SDS011;410;48.954;9.474;2022-11-13T01:15:24;10.23;;;8.40;;
846;SDS011;410;48.954;9.474;2022-11-13T01:17:46;13.23;;;8.23;;
846;SDS011;410;48.954;9.474;2022-11-13T01:20:08;10.15;;;8.02;;
846;SDS011;410;48.954;9.474;2022-11-13T01:22:31;10.93;;;7.65;;
846;SDS011;410;48.954;9.474;2022-11-13T01:24:52;11.00;;;8.63;;
846;SDS011;410;48.954;9.474;2022-11-13T01:27:14;8.38;;;7.18;;
846;SDS011;410;48.954;9.474;2022-11-13T01:29:36;8.30;;;7.32;;
846;SDS011;410;48.954;9.474;2022-11-13T01:31:59;8.48;;;7.10;;
846;SDS011;410;48.954;9.474;2022-11-13T01:34:21;10.60;;;7.70;;
846;SDS011;410;48.954;9.474;2022-11-13T01:36:43;9.48;;;8.48;;
846;SDS011;410;48.954;9.474;2022-11-13T01:39:04;9.07;;;7.70;;
846;SDS011;410;48.954;9.474;2022-11-13T01:41:27;13.48;;;8.50;;
846;SDS011;410;48.954;9.474;2022-11-13T01:43:51;10.93;;;8.32;;
846;SDS011;410;48.954;9.474;2022-11-13T01:46:18;8.68;;;7.35;;
846;SDS011;410;48.954;9.474;2022-11-13T01:48:44;11.35;;;7.97;;
846;SDS011;410;48.954;9.474;2022-11-13T01:51:08;8.98;;;7.35;;
846;SDS011;410;48.954;9.474;2022-11-13T01:53:32;11.75;;;8.35;;
846;SDS011;410;48.954;9.474;2022-11-13T01:55:54;9.85;;;8.30;;
846;SDS011;410;48.954;9.474;2022-11-13T01:58:16;9.80;;;8.18;;
846;SDS011;410;48.954;9.474;2022-11-13T02:00:37;9.70;;;7.60;;
846;SDS011;410;48.954;9.474;2022-11-13T02:03:00;9.90;;;7.03;;
846;SDS011;410;48.954;9.474;2022-11-13T02:05:23;10.30;;;8.50;;
846;SDS011;410;48.954;9.474;2022-11-13T02:07:46;10.13;;;7.85;;
846;SDS011;410;48.954;9.474;2022-11-13T02:10:08;9.48;;;7.82;;
846;SDS011;410;48.954;9.474;2022-11-13T02:12:31;8.65;;;7.75;;
846;SDS011;410;48.954;9.474;2022-11-13T02:14:55;11.23;;;8.55;;
846;SDS011;410;48.954;9.474;2022-11-13T02:17:19;11.27;;;8.60;;
846;SDS011;410;48.954;9.474;2022-11-13T02:19:44;10.98;;;8.48;;
846;SDS011;410;48.954;9.474;2022-11-13T02:22:12;10.90;;;8.15;;
846;SDS011;410;48.954;9.474;2022-11-13T02:24:39;11.98;;;8.93;;
846;SDS011;410;48.954;9.474;2022-11-13T02:27:05;11.25;;;8.52;;
846;SDS011;410;48.954;9.474;2022-11-13T02:29:29;9.30;;;7.50;;
846;SDS011;410;48.954;9.474;2022-11-13T02:31:51;9.00;;;7.63;;
846;SDS011;410;48.954;9.474;2022-11-13T02:34:14;11.00;;;8.05;;
846;SDS011;410;48.954;9.474;2022-11-13T02:36:35;9.75;;;8.13;;
846;SDS011;410;48.954;9.474;2022-11-13T02:38:58;10.40;;;8.48;;
846;SDS011;410;48.954;9.474;2022-11-13T02:41:23;9.00;;;7.85;;
846;SDS011;410;48.954;9.474;2022-11-13T02:43:45;9.68;;;7.43;;
846;SDS011;410;48.954;9.474;2022-11-13T02:46:07;10.65;;;8.07;;
846;SDS011;410;48.954;9.474;2022-11-13T02:48:29;9.55;;;7.35;;
846;SDS011;410;48.954;9.474;2022-11-13T02:50:51;11.63;;;8.10;;
846;SDS011;410;48.954;9.474;2022-11-13T02:53:14;10.10;;;7.55;;
846;SDS011;410;48.954;9.474;2022-11-13T02:55:36;10.63;;;7.90;;
846;SDS011;410;48.954;9.474;2022-11-13T02:57:59;10.27;;;8.05;;
846;SDS011;410;48.954;9.474;2022-11-13T03:00:21;12.23;;;7.80;;
846;SDS011;410;48.954;9.474;2022-11-13T03:02:44;8.88;;;7.10;;
846;SDS011;410;48.954;9.474;2022-11-13T03:05:06;10.27;;;8.25;;
846;SDS011;410;48.954;9.474;2022-11-13T03:07:33;9.30;;;6.80;;
846;SDS011;410;48.954;9.474;2022-11-13T03:09:55;9.05;;;7.25;;
846;SDS011;410;48.954;9.474;2022-11-13T03:12:17;8.23;;;7.15;;
846;SDS011;410;48.954;9.474;2022-11-13T03:14:41;10.13;;;7.50;;
846;SDS011;410;48.954;9.474;2022-11-13T03:17:03;9.07;;;7.60;;
846;SDS011;410;48.954;9.474;2022-11-13T03:19:25;9.50;;;8.18;;
846;SDS011;410;48.954;9.474;2022-11-13T03:21:47;8.63;;;7.00;;
846;SDS011;410;48.954;9.474;2022-11-13T03:24:09;8.60;;;7.45;;
846;SDS011;410;48.954;9.474;2022-11-13T03:26:32;8.73;;;6.93;;
846;SDS011;410;48.954;9.474;2022-11-13T03:28:54;8.35;;;7.10;;
846;SDS011;410;48.954;9.474;2022-11-13T03:31:20;8.85;;;7.40;;
846;SDS011;410;48.954;9.474;2022-11-13T03:33:43;9.80;;;8.00;;
846;SDS011;410;48.954;9.474;2022-11-13T03:36:05;10.85;;;7.50;;
846;SDS011;410;48.954;9.474;2022-11-13T03:38:28;9.00;;;7.07;;
846;SDS011;410;48.954;9.474;2022-11-13T03:40:51;8.63;;;7.20;;
846;SDS011;410;48.954;9.474;2022-11-13T03:43:13;14.10;;;7.47;;
846;SDS011;410;48.954;9.474;2022-11-13T03:45:36;8.45;;;7.55;;
846;SDS011;410;48.954;9.474;2022-11-13T03:47:59;8.40;;;6.93;;
846;SDS011;410;48.954;9.474;2022-11-13T03:50:21;8.43;;;7.10;;
846;SDS011;410;48.954;9.474;2022-11-13T03:52:43;7.85;;;6.63;;
846;SDS011;410;48.954;9.474;2022-11-13T03:55:05;7.07;;;6.30;;
846;SDS011;410;48.954;9.474;2022-11-13T03:57:28;9.35;;;6.82;;
846;SDS011;410;48.954;9.474;2022-11-13T03:59:51;8.25;;;6.63;;
846;SDS011;410;48.954;9.474;2022-11-13T04:02:12;8.73;;;7.03;;
846;SDS011;410;48.954;9.474;2022-11-13T04:04:35;9.18;;;6.85;;
846;SDS011;410;48.954;9.474;2022-11-13T04:06:57;8.32;;;6.93;;
846;SDS011;410;48.954;9.474;2022-11-13T04:09:19;8.68;;;7.60;;
846;SDS011;410;48.954;9.474;2022-11-13T04:11:40;9.02;;;7.35;;
846;SDS011;410;48.954;9.474;2022-11-13T04:14:02;9.48;;;7.00;;
846;SDS011;410;48.954;9.474;2022-11-13T04:16:24;9.23;;;7.75;;
846;SDS011;410;48.954;9.474;2022-11-13T04:18:45;9.55;;;8.32;;
846;SDS011;410;48.954;9.474;2022-11-13T04:21:08;10.57;;;7.70;;
846;SDS011;410;48.954;9.474;2022-11-13T04:23:30;10.23;;;8.30;;
846;SDS011;410;48.954;9.474;2022-11-13T04:25:51;9.70;;;8.15;;
846;SDS011;410;48.954;9.474;2022-11-13T04:28:14;12.25;;;7.78;;
846;SDS011;410;48.954;9.474;2022-11-13T04:30:35;9.55;;;8.55;;
846;SDS011;410;48.954;9.474;2022-11-13T04:32:57;10.05;;;8.07;;
846;SDS011;410;48.954;9.474;2022-11-13T04:35:19;9.80;;;8.15;;
846;SDS011;410;48.954;9.474;2022-11-13T04:37:41;9.98;;;8.05;;
846;SDS011;410;48.954;9.474;2022-11-13T04:40:03;11.23;;;8.15;;
846;SDS011;410;48.954;9.474;2022-11-13T04:42:26;10.00;;;8.30;;
846;SDS011;410;48.954;9.474;2022-11-13T04:45:05;9.10;;;7.20;;
846;SDS011;410;48.954;9.474;2022-11-13T04:47:27;9.32;;;7.45;;
846;SDS011;410;48.954;9.474;2022-11-13T04:49:49;8.70;;;7.80;;
846;SDS011;410;48.954;9.474;2022-11-13T04:52:10;9.45;;;7.75;;
846;SDS011;410;48.954;9.474;2022-11-13T04:54:34;8.35;;;7.35;;
846;SDS011;410;48.954;9.474;2022-11-13T04:56:55;9.15;;;8.25;;
846;SDS011;410;48.954;9.474;2022-11-13T04:59:17;10.07;;;7.82;;
846;SDS011;410;48.954;9.474;2022-11-13T05:01:39;8.65;;;6.88;;
846;SDS011;410;48.954;9.474;2022-11-13T05:04:00;12.23;;;8.90;;
846;SDS011;410;48.954;9.474;2022-11-13T05:06:22;9.07;;;7.60;;
846;SDS011;410;48.954;9.474;2022-11-13T05:08:44;9.85;;;7.30;;
846;SDS011;410;48.954;9.474;2022-11-13T05:11:07;12.50;;;9.18;;
846;SDS011;410;48.954;9.474;2022-11-13T05:13:29;12.55;;;10.07;;
846;SDS011;410;48.954;9.474;2022-11-13T05:15:58;9.93;;;8.93;;
846;SDS011;410;48.954;9.474;2022-11-13T05:18:23;10.27;;;7.85;;
846;SDS011;410;48.954;9.474;2022-11-13T05:20:46;13.45;;;8.32;;
846;SDS011;410;48.954;9.474;2022-11-13T05:23:07;11.50;;;7.53;;
846;SDS011;410;48.954;9.474;2022-11-13T05:25:29;10.70;;;8.15;;
846;SDS011;410;48.954;9.474;2022-11-13T05:27:52;11.63;;;8.88;;
846;SDS011;410;48.954;9.474;2022-11-13T05:30:15;10.98;;;7.65;;
846;SDS011;410;48.954;9.474;2022-11-13T05:32:37;15.93;;;7.60;;
846;SDS011;410;48.954;9.474;2022-11-13T05:34:58;8.95;;;7.57;;
846;SDS011;410;48.954;9.474;2022-11-13T05:37:20;12.82;;;8.73;;
846;SDS011;410;48.954;9.474;2022-11-13T05:39:42;9.98;;;8.80;;
846;SDS011;410;48.954;9.474;2022-11-13T05:42:04;12.20;;;7.93;;
846;SDS011;410;48.954;9.474;2022-11-13T05:44:27;12.50;;;9.52;;
846;SDS011;410;48.954;9.474;2022-11-13T05:46:48;12.13;;;8.63;;
846;SDS011;410;48.954;9.474;2022-11-13T05:49:10;8.75;;;7.82;;
846;SDS011;410;48.954;9.474;2022-11-13T05:51:32;9.50;;;8.43;;
846;SDS011;410;48.954;9.474;2022-11-13T05:53:54;9.88;;;8.77;;
846;SDS011;410;48.954;9.474;2022-11-13T05:56:16;10.57;;;9.25;;
846;SDS011;410;48.954;9.474;2022-11-13T05:58:39;12.05;;;9.93;;
846;SDS011;410;48.954;9.474;2022-11-13T06:01:07;10.35;;;9.05;;
846;SDS011;410;48.954;9.474;2022-11-13T06:03:30;11.27;;;9.80;;
846;SDS011;410;48.954;9.474;2022-11-13T06:05:52;9.93;;;8.77;;
846;SDS011;410;48.954;9.474;2022-11-13T06:08:14;10.55;;;8.93;;
846;SDS011;410;48.954;9.474;2022-11-13T06:10:37;12.10;;;9.07;;
846;SDS011;410;48.954;9.474;2022-11-13T06:12:59;14.25;;;8.50;;
846;SDS011;410;48.954;9.474;2022-11-13T06:15:20;10.35;;;7.85;;
846;SDS011;410;48.954;9.474;2022-11-13T06:17:45;9.30;;;8.15;;
846;SDS011;410;48.954;9.474;2022-11-13T06:20:07;18.88;;;9.55;;
846;SDS011;410;48.954;9.474;2022-11-13T06:22:29;27.83;;;11.07;;
846;SDS011;410;48.954;9.474;2022-11-13T06:24:50;10.68;;;8.95;;
846;SDS011;410;48.954;9.474;2022-11-13T06:27:12;13.40;;;8.77;;
846;SDS011;410;48.954;9.474;2022-11-13T06:29:33;11.45;;;9.00;;
846;SDS011;410;48.954;9.474;2022-11-13T06:31:55;13.38;;;9.45;;
846;SDS011;410;48.954;9.474;2022-11-13T06:34:19;15.65;;;9.73;;
846;SDS011;410;48.954;9.474;2022-11-13T06:36:40;19.77;;;9.25;;
846;SDS011;410;48.954;9.474;2022-11-13T06:39:04;25.77;;;8.80;;
846;SDS011;410;48.954;9.474;2022-11-13T06:41:27;15.60;;;9.15;;
846;SDS011;410;48.954;9.474;2022-11-13T06:43:50;22.67;;;10.90;;
846;SDS011;410;48.954;9.474;2022-11-13T06:46:12;44.50;;;10.50;;
846;SDS011;410;48.954;9.474;2022-11-13T06:48:34;55.03;;;11.55;;
846;SDS011;410;48.954;9.474;2022-11-13T06:51:00;47.03;;;11.20;;
846;SDS011;410;48.954;9.474;2022-11-13T06:53:22;59.20;;;12.27;;
846;SDS011;410;48.954;9.474;2022-11-13T06:55:44;32.25;;;10.95;;
846;SDS011;410;48.954;9.474;2022-11-13T06:58:08;53.05;;;12.90;;
846;SDS011;410;48.954;9.474;2022-11-13T07:00:30;39.53;;;10.77;;
846;SDS011;410;48.954;9.474;2022-11-13T07:02:57;28.38;;;9.88;;
846;SDS011;410;48.954;9.474;2022-11-13T07:05:18;33.25;;;11.80;;
846;SDS011;410;48.954;9.474;2022-11-13T07:07:42;42.40;;;11.27;;
846;SDS011;410;48.954;9.474;2022-11-13T07:10:03;26.85;;;9.35;;
846;SDS011;410;48.954;9.474;2022-11-13T07:12:27;16.83;;;9.30;;
846;SDS011;410;48.954;9.474;2022-11-13T07:14:49;24.75;;;9.82;;
846;SDS011;410;48.954;9.474;2022-11-13T07:17:12;36.58;;;10.13;;
846;SDS011;410;48.954;9.474;2022-11-13T07:19:33;38.47;;;9.23;;
846;SDS011;410;48.954;9.474;2022-11-13T07:21:55;23.63;;;9.32;;
846;SDS011;410;48.954;9.474;2022-11-13T07:24:18;17.38;;;9.02;;
846;SDS011;410;48.954;9.474;2022-11-13T07:26:39;8.70;;;7.63;;
846;SDS011;410;48.954;9.474;2022-11-13T07:29:01;48.13;;;11.30;;
846;SDS011;410;48.954;9.474;2022-11-13T07:31:23;11.88;;;8.93;;
846;SDS011;410;48.954;9.474;2022-11-13T07:33:45;10.85;;;9.40;;
846;SDS011;410;48.954;9.474;2022-11-13T07:36:08;13.32;;;10.38;;
846;SDS011;410;48.954;9.474;2022-11-13T07:38:30;15.40;;;10.48;;
846;SDS011;410;48.954;9.474;2022-11-13T07:40:53;14.80;;;8.73;;
846;SDS011;410;48.954;9.474;2022-11-13T07:43:15;15.85;;;9.73;;
846;SDS011;410;48.954;9.474;2022-11-13T07:45:36;22.17;;;10.63;;
846;SDS011;410;48.954;9.474;2022-11-13T07:47:58;11.35;;;8.40;;
846;SDS011;410;48.954;9.474;2022-11-13T07:50:20;38.70;;;10.70;;
846;SDS011;410;48.954;9.474;2022-11-13T07:52:42;21.77;;;8.15;;
846;SDS011;410;48.954;9.474;2022-11-13T07:55:04;13.32;;;7.60;;
846;SDS011;410;48.954;9.474;2022-11-13T07:57:28;10.02;;;8.23;;
846;SDS011;410;48.954;9.474;2022-11-13T07:59:50;14.00;;;8.90;;
846;SDS011;410;48.954;9.474;2022-11-13T08:02:12;10.45;;;8.55;;
846;SDS011;410;48.954;9.474;2022-11-13T08:04:35;11.35;;;9.13;;
846;SDS011;410;48.954;9.474;2022-11-13T08:06:57;8.98;;;8.10;;
846;SDS011;410;48.954;9.474;2022-11-13T08:09:19;8.77;;;7.85;;
846;SDS011;410;48.954;9.474;2022-11-13T08:11:41;9.18;;;8.27;;
846;SDS011;410;48.954;9.474;2022-11-13T08:14:05;9.30;;;8.40;;
846;SDS011;410;48.954;9.474;2022-11-13T08:16:27;11.57;;;8.70;;
846;SDS011;410;48.954;9.474;2022-11-13T08:18:48;9.85;;;8.85;;
846;SDS011;410;48.954;9.474;2022-11-13T08:21:11;10.45;;;9.40;;
846;SDS011;410;48.954;9.474;2022-11-13T08:23:34;9.43;;;8.43;;
846;SDS011;410;48.954;9.474;2022-11-13T08:25:55;11.80;;;9.57;;
846;SDS011;410;48.954;9.474;2022-11-13T08:28:17;11.70;;;10.38;;
846;SDS011;410;48.954;9.474;2022-11-13T08:30:42;15.20;;;11.80;;
846;SDS011;410;48.954;9.474;2022-11-13T08:33:04;14.68;;;11.43;;
846;SDS011;410;48.954;9.474;2022-11-13T08:35:26;12.90;;;11.20;;
846;SDS011;410;48.954;9.474;2022-11-13T08:37:49;18.40;;;11.85;;
846;SDS011;410;48.954;9.474;2022-11-13T08:40:10;21.83;;;12.50;;
846;SDS011;410;48.954;9.474;2022-11-13T08:42:32;18.77;;;12.45;;
846;SDS011;410;48.954;9.474;2022-11-13T08:44:54;18.75;;;13.85;;
846;SDS011;410;48.954;9.474;2022-11-13T08:47:17;15.43;;;12.63;;
846;SDS011;410;48.954;9.474;2022-11-13T08:49:40;16.25;;;12.80;;
846;SDS011;410;48.954;9.474;2022-11-13T08:52:01;20.05;;;11.90;;
846;SDS011;410;48.954;9.474;2022-11-13T08:54:23;16.17;;;12.48;;
846;SDS011;410;48.954;9.474;2022-11-13T08:56:46;46.90;;;15.23;;
846;SDS011;410;48.954;9.474;2022-11-13T08:59:15;19.35;;;13.18;;
846;SDS011;410;48.954;9.474;2022-11-13T09:01:36;19.95;;;12.90;;
846;SDS011;410;48.954;9.474;2022-11-13T09:03:59;24.23;;;12.98;;
846;SDS011;410;48.954;9.474;2022-11-13T09:06:22;16.05;;;10.73;;
846;SDS011;410;48.954;9.474;2022-11-13T09:08:43;22.25;;;13.20;;
846;SDS011;410;48.954;9.474;2022-11-13T09:11:05;19.63;;;13.40;;
846;SDS011;410;48.954;9.474;2022-11-13T09:13:27;26.98;;;13.90;;
846;SDS011;410;48.954;9.474;2022-11-13T09:15:48;15.02;;;11.95;;
846;SDS011;410;48.954;9.474;2022-11-13T09:18:10;16.13;;;12.75;;
846;SDS011;410;48.954;9.474;2022-11-13T09:20:33;20.98;;;12.20;;
846;SDS011;410;48.954;9.474;2022-11-13T09:22:55;14.15;;;11.98;;
846;SDS011;410;48.954;9.474;2022-11-13T09:25:19;14.15;;;11.75;;
846;SDS011;410;48.954;9.474;2022-11-13T09:27:40;14.90;;;11.98;;
846;SDS011;410;48.954;9.474;2022-11-13T09:30:02;15.38;;;11.88;;
846;SDS011;410;48.954;9.474;2022-11-13T09:32:24;17.25;;;12.35;;
846;SDS011;410;48.954;9.474;2022-11-13T09:34:46;13.02;;;10.80;;
846;SDS011;410;48.954;9.474;2022-11-13T09:37:09;14.40;;;11.02;;
846;SDS011;410;48.954;9.474;2022-11-13T09:39:31;13.35;;;11.95;;
846;SDS011;410;48.954;9.474;2022-11-13T09:41:53;11.75;;;10.55;;
846;SDS011;410;48.954;9.474;2022-11-13T09:44:19;13.00;;;11.05;;
846;SDS011;410;48.954;9.474;2022-11-13T09:46:45;11.50;;;10.30;;
846;SDS011;410;48.954;9.474;2022-11-13T09:49:14;12.23;;;10.93;;
846;SDS011;410;48.954;9.474;2022-11-13T09:51:37;12.75;;;10.82;;
846;SDS011;410;48.954;9.474;2022-11-13T09:54:02;11.77;;;10.57;;
846;SDS011;410;48.954;9.474;2022-11-13T09:56:26;12.10;;;10.70;;
846;SDS011;410;48.954;9.474;2022-11-13T09:58:50;13.48;;;11.45;;
846;SDS011;410;48.954;9.474;2022-11-13T10:01:22;12.70;;;10.80;;
846;SDS011;410;48.954;9.474;2022-11-13T10:03:49;12.95;;;11.10;;
846;SDS011;410;48.954;9.474;2022-11-13T10:06:23;13.38;;;11.90;;
846;SDS011;410;48.954;9.474;2022-11-13T10:08:50;15.30;;;12.02;;
846;SDS011;410;48.954;9.474;2022-11-13T10:11:19;16.38;;;12.98;;
846;SDS011;410;48.954;9.474;2022-11-13T10:13:48;14.40;;;11.85;;
846;SDS011;410;48.954;9.474;2022-11-13T10:16:14;16.00;;;11.93;;
846;SDS011;410;48.954;9.474;2022-11-13T10:18:40;13.43;;;12.07;;
846;SDS011;410;48.954;9.474;2022-11-13T10:21:08;15.40;;;12.82;;
846;SDS011;410;48.954;9.474;2022-11-13T10:23:33;12.75;;;11.45;;
846;SDS011;410;48.954;9.474;2022-11-13T10:25:59;13.70;;;12.20;;
846;SDS011;410;48.954;9.474;2022-11-13T10:28:26;13.90;;;12.00;;
846;SDS011;410;48.954;9.474;2022-11-13T10:31:08;13.73;;;12.32;;
846;SDS011;410;48.954;9.474;2022-11-13T10:33:30;12.85;;;11.55;;
846;SDS011;410;48.954;9.474;2022-11-13T10:35:53;11.60;;;10.40;;
846;SDS011;410;48.954;9.474;2022-11-13T10:38:23;11.07;;;9.77;;
846;SDS011;410;48.954;9.474;2022-11-13T10:40:46;11.95;;;10.85;;
846;SDS011;410;48.954;9.474;2022-11-13T10:43:12;11.90;;;10.68;;
846;SDS011;410;48.954;9.474;2022-11-13T10:45:36;11.63;;;10.35;;
846;SDS011;410;48.954;9.474;2022-11-13T10:47:59;14.45;;;12.57;;
846;SDS011;410;48.954;9.474;2022-11-13T10:50:25;13.18;;;11.55;;
846;SDS011;410;48.954;9.474;2022-11-13T10:52:48;15.50;;;12.98;;
846;SDS011;410;48.954;9.474;2022-11-13T10:55:12;19.95;;;16.25;;
846;SDS011;410;48.954;9.474;2022-11-13T10:57:36;14.73;;;13.07;;
846;SDS011;410;48.954;9.474;2022-11-13T10:59:58;13.57;;;12.20;;
846;SDS011;410;48.954;9.474;2022-11-13T11:02:22;11.88;;;10.57;;
846;SDS011;410;48.954;9.474;2022-11-13T11:04:45;13.55;;;11.52;;
846;SDS011;410;48.954;9.474;2022-11-13T11:07:11;13.07;;;11.77;;
846;SDS011;410;48.954;9.474;2022-11-13T11:09:40;13.45;;;12.07;;
846;SDS011;410;48.954;9.474;2022-11-13T11:12:07;13.80;;;12.40;;
846;SDS011;410;48.954;9.474;2022-11-13T11:14:39;14.57;;;12.52;;
846;SDS011;410;48.954;9.474;2022-11-13T11:17:04;14.13;;;12.63;;
846;SDS011;410;48.954;9.474;2022-11-13T11:19:27;13.80;;;12.20;;
846;SDS011;410;48.954;9.474;2022-11-13T11:21:51;29.45;;;21.63;;
846;SDS011;410;48.954;9.474;2022-11-13T11:24:15;16.80;;;12.82;;
846;SDS011;410;48.954;9.474;2022-11-13T11:26:41;13.95;;;12.27;;
846;SDS011;410;48.954;9.474;2022-11-13T11:29:11;15.82;;;12.38;;
846;SDS011;410;48.954;9.474;2022-11-13T11:31:36;11.68;;;10.48;;
846;SDS011;410;48.954;9.474;2022-11-13T11:34:05;12.05;;;10.75;;
846;SDS011;410;48.954;9.474;2022-11-13T11:36:35;11.95;;;10.45;;
846;SDS011;410;48.954;9.474;2022-11-13T11:39:04;11.75;;;10.52;;
846;SDS011;410;48.954;9.474;2022-11-13T11:41:33;10.60;;;9.43;;
846;SDS011;410;48.954;9.474;2022-11-13T11:44:00;12.35;;;11.15;;
846;SDS011;410;48.954;9.474;2022-11-13T11:46:25;13.35;;;11.40;;
846;SDS011;410;48.954;9.474;2022-11-13T11:48:48;13.00;;;11.70;;
846;SDS011;410;48.954;9.474;2022-11-13T11:51:12;13.18;;;11.82;;
846;SDS011;410;48.954;9.474;2022-11-13T11:53:45;13.77;;;11.68;;
846;SDS011;410;48.954;9.474;2022-11-13T11:56:16;13.18;;;11.77;;
846;SDS011;410;48.954;9.474;2022-11-13T11:58:56;13.35;;;11.95;;
846;SDS011;410;48.954;9.474;2022-11-13T12:01:27;13.50;;;12.10;;
846;SDS011;410;48.954;9.474;2022-11-13T12:03:59;14.00;;;12.18;;
846;SDS011;410;48.954;9.474;2022-11-13T12:06:31;14.82;;;13.25;;
846;SDS011;410;48.954;9.474;2022-11-13T12:09:02;16.13;;;13.80;;
846;SDS011;410;48.954;9.474;2022-11-13T12:11:29;14.82;;;12.85;;
846;SDS011;410;48.954;9.474;2022-11-13T12:13:55;16.23;;;13.13;;
846;SDS011;410;48.954;9.474;2022-11-13T12:16:24;13.40;;;11.52;;
846;SDS011;410;48.954;9.474;2022-11-13T12:18:52;13.73;;;11.95;;
846;SDS011;410;48.954;9.474;2022-11-13T12:21:19;12.32;;;10.93;;
846;SDS011;410;48.954;9.474;2022-11-13T12:23:45;16.00;;;11.95;;
846;SDS011;410;48.954;9.474;2022-11-13T12:26:19;13.30;;;12.00;;
846;SDS011;410;48.954;9.474;2022-11-13T12:28:46;13.43;;;11.75;;
846;SDS011;410;48.954;9.474;2022-11-13T12:31:13;14.07;;;12.57;;
846;SDS011;410;48.954;9.474;2022-11-13T12:33:41;13.15;;;11.75;;
846;SDS011;410;48.954;9.474;2022-11-13T12:36:09;14.57;;;12.60;;
846;SDS011;410;48.954;9.474;2022-11-13T12:38:33;13.18;;;11.80;;
846;SDS011;410;48.954;9.474;2022-11-13T12:41:01;15.07;;;13.45;;
846;SDS011;410;48.954;9.474;2022-11-13T12:43:32;14.00;;;12.57;;
846;SDS011;410;48.954;9.474;2022-11-13T12:46:03;14.68;;;13.07;;
846;SDS011;410;48.954;9.474;2022-11-13T12:48:31;13.20;;;11.80;;
846;SDS011;410;48.954;9.474;2022-11-13T12:50:57;13.15;;;11.85;;
846;SDS011;410;48.954;9.474;2022-11-13T12:53:23;15.05;;;12.20;;
846;SDS011;410;48.954;9.474;2022-11-13T12:55:53;13.33;;;12.03;;
846;SDS011;410;48.954;9.474;2022-11-13T12:58:19;14.15;;;11.70;;
846;SDS011;410;48.954;9.474;2022-11-13T13:00:51;14.87;;;11.87;;
846;SDS011;410;48.954;9.474;2022-11-13T13:03:18;12.90;;;11.60;;
846;SDS011;410;48.954;9.474;2022-11-13T13:05:56;12.82;;;11.52;;
846;SDS011;410;48.954;9.474;2022-11-13T13:11:15;14.70;;;11.83;;
846;SDS011;410;48.954;9.474;2022-11-13T13:13:39;13.73;;;12.43;;
846;SDS011;410;48.954;9.474;2022-11-13T13:16:06;13.43;;;12.10;;
846;SDS011;410;48.954;9.474;2022-11-13T13:18:29;13.40;;;12.10;;
846;SDS011;410;48.954;9.474;2022-11-13T13:21:03;13.10;;;11.77;;
846;SDS011;410;48.954;9.474;2022-11-13T13:23:28;13.83;;;11.50;;
846;SDS011;410;48.954;9.474;2022-11-13T13:26:00;15.53;;;12.57;;
846;SDS011;410;48.954;9.474;2022-11-13T13:28:22;13.77;;;12.10;;
846;SDS011;410;48.954;9.474;2022-11-13T13:30:46;12.97;;;11.60;;
846;SDS011;410;48.954;9.474;2022-11-13T13:33:17;14.00;;;12.60;;
846;SDS011;410;48.954;9.474;2022-11-13T13:35:42;15.37;;;13.77;;
846;SDS011;410;48.954;9.474;2022-11-13T13:38:17;14.60;;;13.10;;
846;SDS011;410;48.954;9.474;2022-11-13T13:40:48;15.67;;;13.30;;
846;SDS011;410;48.954;9.474;2022-11-13T13:43:27;15.77;;;13.60;;
846;SDS011;410;48.954;9.474;2022-11-13T13:45:56;15.63;;;13.93;;
846;SDS011;410;48.954;9.474;2022-11-13T13:48:24;19.33;;;14.00;;
846;SDS011;410;48.954;9.474;2022-11-13T13:50:48;15.40;;;13.80;;
846;SDS011;410;48.954;9.474;2022-11-13T13:53:12;15.17;;;13.57;;
846;SDS011;410;48.954;9.474;2022-11-13T13:55:36;15.77;;;14.10;;
846;SDS011;410;48.954;9.474;2022-11-13T13:58:00;14.53;;;12.70;;
846;SDS011;410;48.954;9.474;2022-11-13T14:00:24;16.10;;;14.40;;
846;SDS011;410;48.954;9.474;2022-11-13T14:02:47;14.80;;;13.30;;
846;SDS011;410;48.954;9.474;2022-11-13T14:05:23;16.77;;;14.97;;
846;SDS011;410;48.954;9.474;2022-11-13T14:07:46;17.50;;;15.60;;
846;SDS011;410;48.954;9.474;2022-11-13T14:10:13;16.83;;;14.93;;
846;SDS011;410;48.954;9.474;2022-11-13T14:12:39;16.80;;;14.67;;
846;SDS011;410;48.954;9.474;2022-11-13T14:15:03;17.83;;;16.00;;
846;SDS011;410;48.954;9.474;2022-11-13T14:17:25;16.83;;;15.17;;
846;SDS011;410;48.954;9.474;2022-11-13T14:19:48;16.27;;;14.57;;
846;SDS011;410;48.954;9.474;2022-11-13T14:22:11;17.43;;;15.03;;
846;SDS011;410;48.954;9.474;2022-11-13T14:24:38;20.47;;;15.87;;
846;SDS011;410;48.954;9.474;2022-11-13T14:27:07;18.80;;;14.83;;
846;SDS011;410;48.954;9.474;2022-11-13T14:29:32;16.73;;;15.00;;
846;SDS011;410;48.954;9.474;2022-11-13T14:32:00;16.43;;;14.73;;
846;SDS011;410;48.954;9.474;2022-11-13T14:34:23;18.13;;;16.20;;
846;SDS011;410;48.954;9.474;2022-11-13T14:36:44;17.80;;;15.20;;
846;SDS011;410;48.954;9.474;2022-11-13T14:39:11;18.60;;;15.90;;
846;SDS011;410;48.954;9.474;2022-11-13T14:41:40;18.80;;;15.67;;
846;SDS011;410;48.954;9.474;2022-11-13T14:44:08;20.70;;;16.40;;
846;SDS011;410;48.954;9.474;2022-11-13T14:46:33;18.07;;;16.10;;
846;SDS011;410;48.954;9.474;2022-11-13T14:48:56;23.83;;;20.53;;
846;SDS011;410;48.954;9.474;2022-11-13T14:51:21;19.40;;;16.57;;
846;SDS011;410;48.954;9.474;2022-11-13T14:53:54;17.70;;;15.90;;
846;SDS011;410;48.954;9.474;2022-11-13T14:56:19;18.90;;;16.00;;
846;SDS011;410;48.954;9.474;2022-11-13T14:58:52;16.67;;;15.00;;
846;SDS011;410;48.954;9.474;2022-11-13T15:01:14;18.03;;;15.20;;
846;SDS011;410;48.954;9.474;2022-11-13T15:03:37;20.90;;;16.60;;
846;SDS011;410;48.954;9.474;2022-11-13T15:05:58;20.00;;;17.83;;
846;SDS011;410;48.954;9.474;2022-11-13T15:08:20;18.10;;;16.20;;
846;SDS011;410;48.954;9.474;2022-11-13T15:10:42;18.07;;;16.17;;